createdAt,value
2022-10-22T00:00:25.671Z,994.16
2022-10-22T00:05:25.616Z,994.08
2022-10-22T00:10:25.544Z,994.16
2022-10-22T00:15:25.487Z,994.11
2022-10-22T00:20:25.414Z,994.20
2022-10-22T00:25:25.359Z,994.42
2022-10-22T00:30:25.286Z,994.57
2022-10-22T00:35:25.232Z,994.58
2022-10-22T00:40:25.160Z,994.52
2022-10-22T00:45:25.104Z,994.59
2022-10-22T00:50:25.031Z,994.65
2022-10-22T00:55:24.976Z,994.61
2022-10-22T01:00:24.902Z,994.54
2022-10-22T01:05:24.846Z,994.57
2022-10-22T01:10:24.772Z,994.54
2022-10-22T01:15:24.724Z,994.43
2022-10-22T01:20:24.644Z,994.45
2022-10-22T01:25:24.588Z,994.51
2022-10-22T01:30:24.516Z,994.54
2022-10-22T01:35:24.547Z,994.57
2022-10-22T01:40:24.386Z,994.55
2022-10-22T01:45:24.329Z,994.55
2022-10-22T01:50:24.257Z,994.40
2022-10-22T01:55:24.200Z,994.43
2022-10-22T02:00:24.288Z,994.40
2022-10-22T02:05:24.068Z,994.31
2022-10-22T02:10:24.001Z,994.31
2022-10-22T02:15:23.937Z,994.29
2022-10-22T02:20:23.863Z,994.12
2022-10-22T02:25:23.810Z,994.13
2022-10-22T02:30:23.734Z,994.11
2022-10-22T02:35:23.675Z,994.10
2022-10-22T02:40:23.604Z,994.21
2022-10-22T02:45:23.545Z,994.17
2022-10-22T02:50:23.476Z,994.22
2022-10-22T02:55:23.416Z,994.11
2022-10-22T03:00:23.348Z,994.24
2022-10-22T03:05:23.290Z,994.39
2022-10-22T03:10:23.213Z,994.34
2022-10-22T03:15:23.217Z,994.49
2022-10-22T03:20:23.083Z,994.62
2022-10-22T03:25:23.022Z,994.59
2022-10-22T03:30:22.949Z,994.55
2022-10-22T03:35:22.896Z,994.54
2022-10-22T03:40:22.819Z,994.59
2022-10-22T03:45:22.763Z,994.68
2022-10-22T03:50:22.688Z,994.56
2022-10-22T03:55:22.641Z,994.56
2022-10-22T04:00:22.568Z,994.53
2022-10-22T04:05:22.507Z,994.63
2022-10-22T04:10:22.438Z,994.68
2022-10-22T04:15:22.378Z,994.77
2022-10-22T04:20:22.303Z,994.74
2022-10-22T04:25:22.244Z,994.83
2022-10-22T04:30:22.172Z,994.74
2022-10-22T04:35:22.163Z,994.84
2022-10-22T04:40:22.043Z,994.70
2022-10-22T04:45:21.982Z,994.65
2022-10-22T04:50:21.962Z,994.61
2022-10-22T04:55:21.885Z,994.68
2022-10-22T05:00:21.782Z,994.70
2022-10-22T05:05:21.726Z,994.79
2022-10-22T05:10:21.652Z,994.81
2022-10-22T05:15:21.598Z,994.97
2022-10-22T05:20:21.522Z,994.98
2022-10-22T05:25:21.464Z,995.02
2022-10-22T05:30:21.391Z,995.09
2022-10-22T05:35:21.333Z,995.22
2022-10-22T05:40:30.385Z,995.23
2022-10-22T05:45:21.203Z,995.21
2022-10-22T05:50:21.133Z,995.16
2022-10-22T05:55:21.077Z,995.25
2022-10-22T06:00:21.011Z,995.33
2022-10-22T06:05:20.949Z,995.37
2022-10-22T06:10:20.891Z,995.42
2022-10-22T06:15:20.823Z,995.51
2022-10-22T06:20:20.752Z,995.65
2022-10-22T06:25:20.693Z,995.67
2022-10-22T06:30:20.624Z,995.83
2022-10-22T06:35:20.565Z,995.89
2022-10-22T06:40:20.493Z,995.97
2022-10-22T06:45:20.438Z,996.06
2022-10-22T06:50:20.365Z,996.07
2022-10-22T06:55:20.309Z,996.09
2022-10-22T07:00:20.288Z,996.11
2022-10-22T07:05:20.200Z,996.21
2022-10-22T07:10:20.503Z,996.20
2022-10-22T07:15:20.051Z,996.40
2022-10-22T07:20:19.983Z,996.47
2022-10-22T07:25:19.927Z,996.56
2022-10-22T07:30:19.855Z,996.61
2022-10-22T07:35:19.809Z,996.61
2022-10-22T07:40:19.730Z,996.67
2022-10-22T07:45:19.669Z,996.69
2022-10-22T07:50:19.597Z,996.70
2022-10-22T07:55:19.540Z,996.77
2022-10-22T08:00:21.766Z,996.77
2022-10-22T08:05:19.411Z,996.75
2022-10-22T08:10:19.340Z,996.78
2022-10-22T08:15:19.285Z,996.77
2022-10-22T08:20:19.211Z,996.86
2022-10-22T08:25:19.153Z,996.94
2022-10-22T08:30:19.082Z,996.99
2022-10-22T08:35:19.027Z,996.97
2022-10-22T08:40:19.066Z,997.06
2022-10-22T08:45:18.893Z,997.05
2022-10-22T08:50:18.845Z,997.17
2022-10-22T08:55:18.766Z,997.18
2022-10-22T09:00:18.755Z,997.20
2022-10-22T09:05:18.633Z,997.24
2022-10-22T09:10:18.648Z,997.29
2022-10-22T09:15:18.500Z,997.20
2022-10-22T09:20:18.501Z,997.23
2022-10-22T09:25:18.369Z,997.20
2022-10-22T09:30:18.349Z,997.15
2022-10-22T09:35:18.240Z,997.13
2022-10-22T09:40:18.231Z,997.16
2022-10-22T09:45:18.109Z,997.17
2022-10-22T09:50:18.052Z,997.16
2022-10-22T09:55:17.980Z,997.16
2022-10-22T10:00:17.909Z,997.15
2022-10-22T10:05:17.854Z,997.19
2022-10-22T10:10:17.783Z,997.14
2022-10-22T10:15:17.727Z,997.22
2022-10-22T10:20:17.659Z,997.25
2022-10-22T10:25:17.604Z,997.34
2022-10-22T10:30:17.536Z,997.27
2022-10-22T10:35:17.481Z,997.24
2022-10-22T10:40:17.408Z,997.23
2022-10-22T10:45:17.353Z,997.35
2022-10-22T10:50:17.281Z,997.24
2022-10-22T10:55:17.228Z,997.35
2022-10-22T11:00:17.164Z,997.37
2022-10-22T11:05:17.112Z,997.36
2022-10-22T11:10:17.033Z,997.50
2022-10-22T11:15:16.972Z,997.59
2022-10-22T11:20:16.908Z,997.62
2022-10-22T11:25:16.849Z,997.61
2022-10-22T11:30:16.796Z,997.66
2022-10-22T11:35:16.721Z,997.60
2022-10-22T11:40:16.650Z,997.59
2022-10-22T11:45:16.594Z,997.62
2022-10-22T11:50:16.523Z,997.68
2022-10-22T11:55:16.467Z,997.71
2022-10-22T12:00:16.389Z,997.69
2022-10-22T12:05:16.332Z,997.75
2022-10-22T12:10:18.376Z,997.73
2022-10-22T12:15:16.203Z,997.74
2022-10-22T12:20:16.135Z,997.79
2022-10-22T12:25:16.073Z,997.78
2022-10-22T12:30:16.000Z,997.72
2022-10-22T12:35:15.942Z,997.70
2022-10-22T12:40:15.870Z,997.65
2022-10-22T12:45:15.812Z,997.64
2022-10-22T12:50:15.739Z,997.52
2022-10-22T12:55:15.681Z,997.59
2022-10-22T13:00:15.611Z,997.53
2022-10-22T13:05:15.551Z,997.58
2022-10-22T13:10:15.481Z,997.57
2022-10-22T13:15:15.426Z,997.58
2022-10-22T13:20:15.350Z,997.57
2022-10-22T13:25:15.293Z,997.61
2022-10-22T13:30:15.221Z,997.65
2022-10-22T13:35:15.161Z,997.66
2022-10-22T13:40:15.091Z,997.74
2022-10-22T13:45:15.027Z,997.79
2022-10-22T13:50:14.970Z,997.80
2022-10-22T13:55:14.895Z,997.76
2022-10-22T14:00:14.818Z,997.81
2022-10-22T14:05:14.758Z,997.75
2022-10-22T14:10:14.683Z,997.77
2022-10-22T14:15:14.628Z,997.80
2022-10-22T14:20:14.550Z,997.79
2022-10-22T14:25:14.490Z,997.83
2022-10-22T14:30:14.420Z,997.88
2022-10-22T14:35:14.358Z,997.87
2022-10-22T14:40:14.291Z,997.88
2022-10-22T14:45:14.234Z,997.98
2022-10-22T14:50:14.167Z,998.02
2022-10-22T14:55:14.105Z,998.10
2022-10-22T15:00:14.033Z,998.07
2022-10-22T15:05:13.978Z,997.99
2022-10-22T15:10:13.906Z,998.00
2022-10-22T15:15:13.850Z,998.01
2022-10-22T15:20:13.778Z,998.12
2022-10-22T15:25:13.724Z,998.17
2022-10-22T15:30:13.649Z,998.16
2022-10-22T15:35:13.591Z,998.27
2022-10-22T15:40:13.529Z,998.37
2022-10-22T15:45:13.458Z,998.46
2022-10-22T15:50:13.384Z,998.51
2022-10-22T16:00:13.255Z,998.55
2022-10-22T16:05:13.196Z,998.51
2022-10-22T16:10:13.124Z,998.63
2022-10-22T16:15:13.063Z,998.68
2022-10-22T16:25:12.930Z,998.82
2022-10-22T16:30:12.858Z,998.84
2022-10-22T16:35:12.799Z,998.91
2022-10-22T16:40:12.724Z,999.04
2022-10-22T16:45:12.729Z,999.10
2022-10-22T16:50:12.623Z,999.15
2022-10-22T16:55:12.535Z,999.32
2022-10-22T17:00:12.463Z,999.31
2022-10-22T17:05:12.405Z,999.34
2022-10-22T17:10:12.405Z,999.34
2022-10-22T17:15:12.287Z,999.35
2022-10-22T17:20:12.201Z,999.39
2022-10-22T17:25:12.143Z,999.45
2022-10-22T17:30:12.076Z,999.57
2022-10-22T17:35:12.013Z,999.63
2022-10-22T17:40:11.939Z,999.58
2022-10-22T17:45:11.881Z,999.63
2022-10-22T17:50:11.808Z,999.65
2022-10-22T17:55:11.754Z,999.67
2022-10-22T18:00:11.722Z,999.74
2022-10-22T18:05:11.622Z,999.84
2022-10-22T18:10:11.547Z,999.90
2022-10-22T18:15:11.493Z,999.91
2022-10-22T18:20:11.420Z,999.89
2022-10-22T18:25:11.360Z,999.90
2022-10-22T18:30:11.287Z,999.97
2022-10-22T18:35:11.229Z,999.93
2022-10-22T18:40:14.453Z,999.98
2022-10-22T18:45:11.095Z,1000.07
2022-10-22T18:50:11.022Z,1000.11
2022-10-22T18:55:10.960Z,1000.11
2022-10-22T19:00:10.887Z,1000.11
2022-10-22T19:05:10.829Z,1000.09
2022-10-22T19:10:10.752Z,1000.04
2022-10-22T19:15:10.690Z,1000.04
2022-10-22T19:20:10.619Z,1000.02
2022-10-22T19:25:12.063Z,1000.16
2022-10-22T19:30:10.484Z,1000.22
2022-10-22T19:35:10.426Z,1000.27
2022-10-22T19:40:10.442Z,1000.38
2022-10-22T19:45:10.293Z,1000.36
2022-10-22T19:50:10.230Z,1000.42
2022-10-22T19:55:10.151Z,1000.35
2022-10-22T20:00:10.091Z,1000.37
2022-10-22T20:05:10.107Z,1000.46
2022-10-22T20:10:09.958Z,1000.62
2022-10-22T20:15:09.884Z,1000.60
2022-10-22T20:20:09.827Z,1000.68
2022-10-22T20:25:09.754Z,1000.75
2022-10-22T20:30:09.732Z,1000.80
2022-10-22T20:35:09.621Z,1000.90
2022-10-22T20:40:09.565Z,1000.96
2022-10-22T20:45:09.492Z,1000.97
2022-10-22T20:50:09.436Z,1001.01
2022-10-22T20:55:09.432Z,1000.92
2022-10-22T21:00:09.308Z,1000.85
2022-10-22T21:05:09.237Z,1000.80
2022-10-22T21:10:09.179Z,1000.87
2022-10-22T21:15:11.759Z,1000.81
2022-10-22T21:25:08.975Z,1000.90
2022-10-22T21:30:08.919Z,1000.89
2022-10-22T21:35:08.849Z,1000.85
2022-10-22T21:40:08.788Z,1000.72
2022-10-22T21:45:12.406Z,1000.72
2022-10-22T21:50:08.659Z,1000.75
2022-10-22T21:55:08.588Z,1000.82
2022-10-22T22:00:08.532Z,1000.97
2022-10-22T22:05:08.459Z,1000.96
2022-10-22T22:10:08.406Z,1000.93
2022-10-22T22:15:08.333Z,1000.96
2022-10-22T22:20:08.275Z,1001.03
2022-10-22T22:25:08.203Z,1001.02
2022-10-22T22:30:08.146Z,1001.04
2022-10-22T22:35:08.084Z,1001.04
2022-10-22T22:40:08.018Z,1001.07
2022-10-22T22:45:07.947Z,1001.14
2022-10-22T22:50:07.889Z,1001.13
2022-10-22T22:55:07.814Z,1001.21
2022-10-22T23:00:07.755Z,1001.16
2022-10-22T23:05:07.682Z,1001.07
2022-10-22T23:10:07.626Z,1001.10
2022-10-22T23:15:07.553Z,1001.04
2022-10-22T23:20:07.494Z,1000.98
2022-10-22T23:25:07.424Z,1000.94
2022-10-22T23:30:07.365Z,1000.83
2022-10-22T23:35:07.290Z,1000.78
2022-10-22T23:40:07.233Z,1000.77
2022-10-22T23:45:07.158Z,1000.81
2022-10-22T23:50:07.101Z,1000.64
2022-10-22T23:55:07.032Z,1000.56
